Time;durP1;ratioP1;P1;durP2;ratioP2;P2;SDS_P1;SDS_P2;PMS_P1;PMS_P2;Temp;Humidity;BMP_temperature;BMP_pressure;BME280_temperature;BME280_humidity;BME280_pressure;Samples;Min_cycle;Max_cycle;Signal;HPM_P1;HPM_P2
2023/07/09 00:00:50;;;;;;;7.93;4.93;;;21.70;99.90;;;;;;5114502;28;20132;-90
2023/07/09 00:03:19;;;;;;;8.32;5.30;;;21.60;99.90;;;;;;5098159;28;20078;-90
2023/07/09 00:05:48;;;;;;;13.13;5.30;;;21.60;99.90;;;;;;5114126;28;20050;-90
2023/07/09 00:08:33;;;;;;;9.02;5.25;;;21.60;99.90;;;;;;5097880;28;20043;-90
2023/07/09 00:11:00;;;;;;;;;;;21.50;99.90;;;;;;5097944;28;20080;-90
2023/07/09 00:13:27;;;;;;;9.88;5.32;;;21.40;99.90;;;;;;5131348;28;20547;-89
2023/07/09 00:16:00;;;;;;;8.02;4.97;;;21.40;99.90;;;;;;5097540;28;20044;-90
2023/07/09 00:18:27;;;;;;;10.25;5.38;;;21.40;99.90;;;;;;5114379;28;20113;-90
2023/07/09 00:20:54;;;;;;;8.13;5.18;;;21.30;99.90;;;;;;5097774;28;20074;-90
2023/07/09 00:23:20;;;;;;;8.85;5.68;;;21.30;99.90;;;;;;5097632;28;20071;-90
2023/07/09 00:25:47;;;;;;;7.93;5.40;;;21.20;99.90;;;;;;5080496;28;20134;-90
2023/07/09 00:28:15;;;;;;;8.52;5.85;;;21.40;99.90;;;;;;5114526;28;20039;-90
2023/07/09 00:30:42;;;;;;;8.55;5.10;;;21.20;99.90;;;;;;5081308;28;20046;-90
2023/07/09 00:33:14;;;;;;;11.55;5.63;;;21.20;99.90;;;;;;5113777;28;20044;-90
2023/07/09 00:35:46;;;;;;;7.65;5.45;;;21.00;99.90;;;;;;5114624;28;20487;-90
2023/07/09 00:38:21;;;;;;;12.32;5.60;;;21.00;99.90;;;;;;5113672;28;20119;-90
2023/07/09 00:41:03;;;;;;;9.85;5.50;;;21.00;99.90;;;;;;5114062;28;20042;-91
2023/07/09 00:43:35;;;;;;;9.23;5.90;;;21.00;99.90;;;;;;5114087;28;20113;-91
2023/07/09 00:46:20;;;;;;;10.02;5.90;;;21.00;99.90;;;;;;5131240;28;20130;-90
2023/07/09 00:48:57;;;;;;;9.27;5.68;;;20.90;99.90;;;;;;5135025;28;20051;-90
2023/07/09 00:51:25;;;;;;;9.93;5.63;;;20.90;99.90;;;;;;5118162;28;20069;-90
2023/07/09 00:53:58;;;;;;;9.43;5.90;;;20.80;99.90;;;;;;5084880;28;20086;-90
2023/07/09 00:56:38;;;;;;;6.72;5.07;;;20.80;99.90;;;;;;5118296;28;20051;-90
2023/07/09 00:59:18;;;;;;;10.90;6.15;;;20.70;99.90;;;;;;5117450;28;20102;-90
2023/07/09 01:01:47;;;;;;;9.18;5.72;;;20.60;99.90;;;;;;5118581;28;20047;-90
2023/07/09 01:04:16;;;;;;;9.45;5.63;;;20.60;99.90;;;;;;5101337;28;20078;-89
2023/07/09 01:06:46;;;;;;;12.38;6.13;;;20.60;99.90;;;;;;5102230;28;20039;-90
2023/07/09 01:09:13;;;;;;;8.73;6.05;;;20.60;99.90;;;;;;5117414;28;20326;-90
2023/07/09 01:11:40;;;;;;;8.82;5.38;;;20.50;99.90;;;;;;5100950;28;20071;-90
2023/07/09 01:14:10;;;;;;;11.88;5.78;;;20.50;99.90;;;;;;5101077;28;20545;-89
2023/07/09 01:17:01;;;;;;;15.18;6.47;;;20.50;99.90;;;;;;5117638;28;20043;-90
2023/07/09 01:19:30;;;;;;;10.48;5.85;;;20.40;99.90;;;;;;5117435;28;20040;-91
2023/07/09 01:21:59;;;;;;;8.45;5.57;;;20.40;99.90;;;;;;5117278;28;20081;-90
2023/07/09 01:25:03;;;;;;;8.40;5.30;;;20.40;99.90;;;;;;5117252;28;20040;-90
2023/07/09 01:27:46;;;;;;;10.15;5.70;;;20.40;99.90;;;;;;5066978;28;20052;-90
2023/07/09 01:30:22;;;;;;;10.02;5.47;;;20.40;99.90;;;;;;5117051;28;20385;-90
2023/07/09 01:32:50;;;;;;;9.20;5.63;;;20.30;99.90;;;;;;5117259;28;20130;-90
2023/07/09 01:35:21;;;;;;;9.45;6.20;;;20.30;99.90;;;;;;5100517;28;20031;-90
2023/07/09 01:37:48;;;;;;;8.23;5.70;;;20.20;99.90;;;;;;5117189;28;20395;-90
2023/07/09 01:40:18;;;;;;;9.07;5.82;;;20.20;99.90;;;;;;5100684;28;20476;-90
2023/07/09 01:42:45;;;;;;;10.38;5.80;;;20.10;99.90;;;;;;5116788;28;20095;-90
2023/07/09 01:45:12;;;;;;;9.70;5.40;;;20.10;99.90;;;;;;5083682;28;20448;-90
2023/07/09 01:47:39;;;;;;;8.48;5.32;;;20.10;99.90;;;;;;5116928;28;20434;-90
2023/07/09 01:50:07;;;;;;;9.60;5.68;;;20.00;99.90;;;;;;5100344;28;20035;-90
2023/07/09 01:52:34;;;;;;;10.02;5.72;;;20.00;99.90;;;;;;5083705;28;20044;-89
2023/07/09 01:55:02;;;;;;;10.20;5.45;;;20.00;99.90;;;;;;5100030;28;20081;-90
2023/07/09 01:57:34;;;;;;;7.55;5.75;;;20.00;99.90;;;;;;5100178;28;20039;-90
2023/07/09 02:00:10;;;;;;;9.77;6.07;;;19.90;99.90;;;;;;5116667;28;20047;-90
2023/07/09 02:02:42;;;;;;;7.95;5.47;;;19.90;99.90;;;;;;5133588;28;20410;-89
2023/07/09 02:05:10;;;;;;;9.18;5.93;;;19.80;99.90;;;;;;5085185;28;20047;-90
2023/07/09 02:07:37;;;;;;;7.93;5.78;;;19.80;99.90;;;;;;5100345;28;20059;-89
2023/07/09 02:10:04;;;;;;;9.85;6.20;;;19.80;99.90;;;;;;5099920;28;20559;-90
2023/07/09 02:12:31;;;;;;;8.55;5.38;;;19.80;99.90;;;;;;5117046;28;20684;-89
2023/07/09 02:14:58;;;;;;;11.15;5.85;;;19.70;99.90;;;;;;5100369;28;20038;-89
2023/07/09 02:17:25;;;;;;;12.13;6.05;;;19.70;99.90;;;;;;5100010;28;20050;-90
2023/07/09 02:19:51;;;;;;;10.27;6.57;;;19.70;99.90;;;;;;5100275;28;20035;-90
2023/07/09 02:22:19;;;;;;;11.50;5.95;;;19.60;99.90;;;;;;5100134;28;20100;-90
2023/07/09 02:24:46;;;;;;;10.82;5.82;;;19.60;99.90;;;;;;5083669;28;20126;-90
2023/07/09 02:27:16;;;;;;;9.35;6.32;;;19.60;99.90;;;;;;5100197;28;20067;-90
2023/07/09 02:29:42;;;;;;;9.63;6.13;;;19.60;99.90;;;;;;5096463;28;20576;-90
2023/07/09 02:32:13;;;;;;;10.77;6.05;;;19.50;99.90;;;;;;5062776;28;20127;-90
2023/07/09 02:34:39;;;;;;;9.85;5.93;;;19.50;99.90;;;;;;5096617;28;20082;-90
2023/07/09 02:37:06;;;;;;;13.50;6.20;;;19.50;99.90;;;;;;5062747;28;20075;-90
2023/07/09 02:39:33;;;;;;;10.40;5.80;;;19.50;99.90;;;;;;5063331;28;20040;-90
2023/07/09 02:41:59;;;;;;;10.68;6.22;;;19.40;99.90;;;;;;5062536;28;20044;-90
2023/07/09 02:44:26;;;;;;;9.77;6.53;;;19.40;99.90;;;;;;5058643;28;20558;-90
2023/07/09 02:46:53;;;;;;;10.23;6.90;;;19.40;99.90;;;;;;5058976;28;20178;-90
2023/07/09 02:49:19;;;;;;;10.70;6.22;;;19.40;99.90;;;;;;5058746;28;20123;-90
2023/07/09 02:51:46;;;;;;;9.02;6.40;;;19.40;99.90;;;;;;5059520;28;20040;-89
2023/07/09 02:54:13;;;;;;;8.75;6.07;;;19.40;99.90;;;;;;5075611;28;20040;-89
2023/07/09 02:56:40;;;;;;;11.30;6.22;;;19.40;99.90;;;;;;5075309;28;20396;-90
2023/07/09 02:59:06;;;;;;;9.30;5.93;;;19.20;99.90;;;;;;5075531;28;20040;-90
2023/07/09 03:01:34;;;;;;;10.88;6.28;;;19.30;99.90;;;;;;5074904;28;20032;-90
2023/07/09 03:04:02;;;;;;;10.45;6.35;;;19.20;99.90;;;;;;5059529;28;20499;-89
2023/07/09 03:06:32;;;;;;;8.52;6.18;;;19.20;99.90;;;;;;5091178;28;20037;-89
2023/07/09 03:09:00;;;;;;;9.45;6.40;;;19.20;99.90;;;;;;5107921;28;20090;-90
2023/07/09 03:11:31;;;;;;;11.30;6.13;;;19.20;99.90;;;;;;5074980;28;20399;-89
2023/07/09 03:13:59;;;;;;;13.45;6.35;;;19.20;99.90;;;;;;5075117;28;20037;-90
2023/07/09 03:16:31;;;;;;;11.93;6.53;;;19.20;99.90;;;;;;5075291;28;20545;-90
2023/07/09 03:18:58;;;;;;;11.30;6.68;;;19.20;99.90;;;;;;5075291;28;20123;-89
2023/07/09 03:21:26;;;;;;;10.98;6.70;;;19.20;99.90;;;;;;5091713;28;20044;-90
2023/07/09 03:23:54;;;;;;;12.38;6.63;;;19.10;99.90;;;;;;5075124;28;20724;-90
2023/07/09 03:26:21;;;;;;;12.13;6.55;;;19.10;99.90;;;;;;5074917;28;20443;-90
2023/07/09 03:28:48;;;;;;;13.57;6.32;;;19.10;99.90;;;;;;5075428;28;20040;-90
2023/07/09 03:31:15;;;;;;;12.98;6.55;;;19.10;99.90;;;;;;5075004;28;20042;-90
2023/07/09 03:33:42;;;;;;;10.10;6.60;;;19.10;99.90;;;;;;5075046;28;20522;-89
2023/07/09 03:36:09;;;;;;;9.20;6.72;;;19.10;99.90;;;;;;5058833;28;20096;-89
2023/07/09 03:38:35;;;;;;;10.98;6.55;;;19.10;99.90;;;;;;5057967;28;20043;-90
2023/07/09 03:41:02;;;;;;;9.32;5.97;;;19.10;99.90;;;;;;5075087;28;20174;-90
2023/07/09 03:43:29;;;;;;;10.95;6.82;;;19.10;99.90;;;;;;5058025;28;20060;-90
2023/07/09 03:45:56;;;;;;;8.75;6.18;;;19.10;99.90;;;;;;5075005;28;20511;-90
2023/07/09 03:48:23;;;;;;;11.10;6.75;;;19.10;99.90;;;;;;5074373;28;20117;-90
2023/07/09 03:50:49;;;;;;;12.15;7.05;;;19.10;99.90;;;;;;5075061;28;20097;-89
2023/07/09 03:53:16;;;;;;;13.95;6.75;;;19.10;99.90;;;;;;5074522;28;20094;-90
2023/07/09 03:55:47;;;;;;;10.93;6.93;;;19.10;99.90;;;;;;5090749;28;20032;-89
2023/07/09 03:58:13;;;;;;;12.88;7.13;;;19.10;99.90;;;;;;5107893;28;20036;-90
2023/07/09 04:00:40;;;;;;;9.95;6.65;;;19.10;99.90;;;;;;5074317;28;20040;-90
2023/07/09 04:03:08;;;;;;;11.57;7.13;;;19.20;99.90;;;;;;5074234;28;20089;-89
2023/07/09 04:05:35;;;;;;;13.73;6.90;;;19.10;99.90;;;;;;5058062;28;20080;-90
2023/07/09 04:08:02;;;;;;;9.85;6.93;;;19.20;99.90;;;;;;5074102;28;20086;-89
2023/07/09 04:10:29;;;;;;;11.48;6.93;;;19.20;99.90;;;;;;5057736;28;20044;-90
2023/07/09 04:12:56;;;;;;;12.13;6.85;;;19.20;99.90;;;;;;5074188;28;20040;-90
2023/07/09 04:15:22;;;;;;;11.00;6.80;;;19.20;99.90;;;;;;5057854;28;20040;-90
2023/07/09 04:17:49;;;;;;;10.82;6.32;;;19.20;99.90;;;;;;5074512;28;20036;-90
2023/07/09 04:20:16;;;;;;;9.82;6.88;;;19.30;99.90;;;;;;5058057;28;20040;-90
2023/07/09 04:22:43;;;;;;;12.43;6.90;;;19.30;99.90;;;;;;5073383;28;20047;-90
2023/07/09 04:25:10;;;;;;;9.90;6.75;;;19.30;99.90;;;;;;5057642;28;20044;-89
2023/07/09 04:27:38;;;;;;;10.55;6.40;;;19.30;99.90;;;;;;5073569;28;20127;-89
2023/07/09 04:30:10;;;;;;;12.55;6.82;;;19.40;99.90;;;;;;5074059;28;20189;-88
2023/07/09 04:32:37;;;;;;;12.45;6.40;;;19.40;99.90;;;;;;5074079;28;20036;-90
2023/07/09 04:35:07;;;;;;;9.73;6.72;;;19.40;99.90;;;;;;5074573;28;20393;-89
2023/07/09 04:37:34;;;;;;;9.90;6.80;;;19.50;99.90;;;;;;5074286;28;20052;-90
2023/07/09 04:40:00;;;;;;;11.48;6.70;;;19.50;99.90;;;;;;5090482;28;20473;-90
2023/07/09 04:42:27;;;;;;;9.25;6.53;;;19.60;99.90;;;;;;5058760;28;20473;-90
2023/07/09 04:44:54;;;;;;;10.77;6.65;;;19.60;99.90;;;;;;5060676;28;20137;-90
2023/07/09 04:47:20;;;;;;;10.15;5.75;;;19.60;99.90;;;;;;5061061;28;20040;-90
2023/07/09 04:49:47;;;;;;;11.75;6.80;;;19.70;99.90;;;;;;5060961;28;20082;-90
2023/07/09 04:52:15;;;;;;;11.80;6.50;;;19.70;99.90;;;;;;5060687;28;20086;-90
2023/07/09 04:54:45;;;;;;;9.38;6.25;;;19.90;99.90;;;;;;5094243;28;20032;-90
2023/07/09 04:57:12;;;;;;;11.43;5.70;;;20.00;99.90;;;;;;5077593;28;20039;-89
2023/07/09 04:59:39;;;;;;;12.52;5.90;;;20.00;99.90;;;;;;5076721;28;20047;-89
2023/07/09 05:02:06;;;;;;;9.73;5.85;;;20.10;99.90;;;;;;5060519;28;20411;-90
2023/07/09 05:04:33;;;;;;;10.30;5.68;;;20.20;99.90;;;;;;5077118;28;20377;-90
2023/07/09 05:07:00;;;;;;;11.95;6.32;;;20.30;99.90;;;;;;5060669;28;20100;-90
2023/07/09 05:09:26;;;;;;;12.73;6.47;;;20.30;99.90;;;;;;5060373;28;20433;-90
2023/07/09 05:11:53;;;;;;;13.70;6.85;;;20.40;99.90;;;;;;5076281;28;20044;-90
2023/07/09 05:14:20;;;;;;;10.98;6.18;;;20.50;99.90;;;;;;5077193;28;20036;-90
2023/07/09 05:16:47;;;;;;;9.75;6.00;;;20.60;99.90;;;;;;5060327;28;20158;-90
2023/07/09 05:19:14;;;;;;;8.38;5.57;;;20.70;99.90;;;;;;5060592;28;20123;-90
2023/07/09 05:21:41;;;;;;;11.68;6.07;;;20.70;99.90;;;;;;5076693;28;20511;-90
2023/07/09 05:24:07;;;;;;;10.90;5.90;;;20.80;99.90;;;;;;5093625;28;20044;-90
2023/07/09 05:26:34;;;;;;;9.13;5.85;;;20.90;99.90;;;;;;5093461;28;20043;-90
2023/07/09 05:29:04;;;;;;;8.45;5.45;;;20.90;99.90;;;;;;5076834;28;20089;-90
2023/07/09 05:31:31;;;;;;;11.05;6.00;;;21.00;99.90;;;;;;5093403;28;20127;-90
2023/07/09 05:33:59;;;;;;;9.77;6.13;;;21.10;99.90;;;;;;5078701;28;20408;-90
2023/07/09 05:36:28;;;;;;;10.85;6.13;;;21.10;99.90;;;;;;5080592;28;20075;-90
2023/07/09 05:38:56;;;;;;;9.95;6.18;;;21.30;99.90;;;;;;5080418;28;20047;-89
2023/07/09 05:41:23;;;;;;;12.23;6.60;;;21.40;99.90;;;;;;5080597;28;20075;-91
2023/07/09 05:43:52;;;;;;;8.10;5.80;;;21.60;99.90;;;;;;5079954;28;20484;-90
2023/07/09 05:46:19;;;;;;;10.57;6.10;;;21.70;99.90;;;;;;5080585;28;20480;-91
2023/07/09 05:48:46;;;;;;;9.52;5.82;;;21.80;99.90;;;;;;5063973;28;20148;-90
2023/07/09 05:51:13;;;;;;;10.73;5.72;;;22.00;99.90;;;;;;5077018;28;20040;-90
2023/07/09 05:53:40;;;;;;;9.63;5.53;;;22.10;99.90;;;;;;5080502;28;20079;-91
2023/07/09 05:56:07;;;;;;;11.02;5.75;;;22.20;99.90;;;;;;5100728;28;20046;-90
2023/07/09 05:58:34;;;;;;;8.70;5.63;;;22.20;99.90;;;;;;5117223;28;20092;-90
2023/07/09 06:01:01;;;;;;;9.00;5.43;;;22.30;99.90;;;;;;5116879;28;20040;-90
2023/07/09 06:03:29;;;;;;;11.63;6.10;;;22.30;99.90;;;;;;5083632;28;20035;-91
2023/07/09 06:05:57;;;;;;;10.10;6.03;;;22.40;99.90;;;;;;5077171;28;20496;-90
2023/07/09 06:08:23;;;;;;;8.10;5.47;;;22.50;99.90;;;;;;5076609;28;20045;-91
2023/07/09 06:11:01;;;;;;;10.27;5.22;;;22.60;99.90;;;;;;5060074;28;20044;-90
2023/07/09 06:13:32;;;;;;;15.85;5.30;;;22.70;99.90;;;;;;5092836;28;20036;-90
2023/07/09 06:16:00;;;;;;;6.63;4.72;;;22.90;99.90;;;;;;5092874;28;20139;-91
2023/07/09 06:18:30;;;;;;;8.27;5.30;;;23.00;99.90;;;;;;5076475;28;20717;-91
2023/07/09 06:21:01;;;;;;;9.32;5.40;;;23.10;99.90;;;;;;5092494;28;20138;-90
2023/07/09 06:23:29;;;;;;;10.65;5.68;;;23.20;99.90;;;;;;5076274;28;20057;-90
2023/07/09 06:25:56;;;;;;;11.38;5.63;;;23.20;99.90;;;;;;5059901;28;20048;-92
2023/07/09 06:28:25;;;;;;;9.55;5.00;;;23.30;99.90;;;;;;5059507;28;20527;-89
2023/07/09 06:30:52;;;;;;;11.32;6.20;;;23.30;99.90;;;;;;5091888;28;20044;-88
2023/07/09 06:33:19;;;;;;;9.30;6.28;;;23.30;99.90;;;;;;5092288;28;20448;-87
2023/07/09 06:35:58;;;;;;;11.02;5.70;;;23.40;99.90;;;;;;5077594;28;20036;-88
2023/07/09 06:38:25;;;;;;;7.53;5.13;;;23.40;99.90;;;;;;5092629;28;20037;-90
2023/07/09 06:40:52;;;;;;;8.77;5.53;;;23.40;99.90;;;;;;5091079;28;20036;-87
2023/07/09 06:43:19;;;;;;;10.55;5.90;;;23.40;99.90;;;;;;5091783;28;20063;-90
2023/07/09 06:45:58;;;;;;;8.70;5.82;;;23.40;99.90;;;;;;5074148;28;20063;-88
2023/07/09 06:48:27;;;;;;;9.98;5.97;;;23.40;99.90;;;;;;5107940;28;20040;-87
2023/07/09 06:50:55;;;;;;;7.85;5.43;;;23.50;99.90;;;;;;5100251;28;20036;-87
2023/07/09 06:53:23;;;;;;;16.25;5.78;;;23.50;99.90;;;;;;5101301;28;20097;-89
2023/07/09 06:55:50;;;;;;;10.05;5.60;;;23.60;99.90;;;;;;5101133;28;20098;-88
2023/07/09 06:58:17;;;;;;;8.73;5.72;;;23.60;99.90;;;;;;5092138;28;20036;-88
2023/07/09 07:00:45;;;;;;;8.02;4.95;;;23.70;99.90;;;;;;5075008;28;20130;-87
2023/07/09 07:03:12;;;;;;;8.27;4.97;;;23.90;99.90;;;;;;5091168;28;20076;-88
2023/07/09 07:05:49;;;;;;;8.30;5.40;;;24.00;99.90;;;;;;5074644;28;20082;-88
2023/07/09 07:08:17;;;;;;;9.25;5.53;;;24.10;99.90;;;;;;5091726;28;20041;-87
2023/07/09 07:10:46;;;;;;;8.65;5.65;;;24.20;99.90;;;;;;5108801;28;20040;-89
2023/07/09 07:13:13;;;;;;;14.88;6.03;;;24.40;99.90;;;;;;5059222;28;20104;-90
2023/07/09 07:15:41;;;;;;;10.82;5.65;;;24.40;99.90;;;;;;5092530;28;20041;-90
2023/07/09 07:18:08;;;;;;;12.32;6.05;;;24.50;99.90;;;;;;5075516;28;20043;-90
2023/07/09 07:20:34;;;;;;;9.35;6.05;;;24.70;99.90;;;;;;5075623;28;20080;-87
2023/07/09 07:23:01;;;;;;;9.70;6.05;;;24.80;99.90;;;;;;5055297;28;20076;-86
2023/07/09 07:25:30;;;;;;;11.48;6.40;;;25.00;99.90;;;;;;5072471;28;20044;-86
2023/07/09 07:27:57;;;;;;;11.85;6.30;;;25.00;99.90;;;;;;5056371;28;20040;-87
2023/07/09 07:30:23;;;;;;;9.80;6.70;;;25.20;99.90;;;;;;5092002;28;20044;-86
2023/07/09 07:32:50;;;;;;;9.07;6.20;;;25.30;99.90;;;;;;5077288;28;20560;-86
2023/07/09 07:35:18;;;;;;;9.18;6.20;;;25.40;99.90;;;;;;5076696;28;20149;-83
2023/07/09 07:37:44;;;;;;;10.10;6.65;;;25.50;99.90;;;;;;5077134;28;20457;-86
2023/07/09 07:40:11;;;;;;;11.00;6.15;;;25.50;99.90;;;;;;5095048;28;20173;-86
2023/07/09 07:42:41;;;;;;;11.73;6.47;;;25.60;99.90;;;;;;5111208;28;20523;-86
2023/07/09 07:45:09;;;;;;;11.68;6.28;;;25.50;99.90;;;;;;5107498;28;20068;-85
2023/07/09 07:47:42;;;;;;;12.00;6.43;;;25.90;99.90;;;;;;5091793;28;20767;-86
2023/07/09 07:50:10;;;;;;;11.50;5.75;;;25.90;99.90;;;;;;5092707;28;20040;-87
2023/07/09 07:52:37;;;;;;;10.93;6.65;;;26.00;99.90;;;;;;5090759;28;20044;-86
2023/07/09 07:55:14;;;;;;;11.13;6.38;;;26.10;99.90;;;;;;5090947;28;20476;-84
2023/07/09 07:57:41;;;;;;;10.10;6.68;;;26.30;99.90;;;;;;5123724;28;20075;-84
2023/07/09 08:00:09;;;;;;;10.38;6.35;;;26.40;99.90;;;;;;5066094;28;20075;-84
2023/07/09 08:02:36;;;;;;;10.48;6.72;;;26.60;99.90;;;;;;5065461;28;20071;-85
2023/07/09 08:05:06;;;;;;;10.25;5.95;;;26.70;99.90;;;;;;5094160;28;20047;-86
2023/07/09 08:07:35;;;;;;;10.18;6.05;;;26.70;99.90;;;;;;5072588;28;20043;-85
2023/07/09 08:10:02;;;;;;;11.70;6.45;;;26.80;99.90;;;;;;5066338;28;20119;-86
2023/07/09 08:12:29;;;;;;;11.18;6.70;;;26.80;99.90;;;;;;5092521;28;20122;-86
2023/07/09 08:14:56;;;;;;;11.27;6.25;;;26.90;99.90;;;;;;5067408;28;20041;-85
2023/07/09 08:17:26;;;;;;;10.93;6.43;;;26.90;99.90;;;;;;5077788;28;20125;-86
2023/07/09 08:19:59;;;;;;;10.90;6.07;;;26.90;99.90;;;;;;5079232;28;20409;-86
2023/07/09 08:22:25;;;;;;;11.35;6.40;;;26.90;99.90;;;;;;5097525;28;20094;-86
2023/07/09 08:24:52;;;;;;;12.07;5.93;;;27.00;99.90;;;;;;5061265;28;20064;-86
2023/07/09 08:27:19;;;;;;;8.85;6.10;;;27.00;99.90;;;;;;5093016;28;20418;-86
2023/07/09 08:29:47;;;;;;;7.97;5.40;;;27.10;99.90;;;;;;5071486;28;20041;-86
2023/07/09 08:32:14;;;;;;;10.70;6.00;;;27.20;99.90;;;;;;5097790;28;20493;-87
2023/07/09 08:34:42;;;;;;;9.82;6.00;;;27.40;99.90;;;;;;5058774;28;20393;-87
2023/07/09 08:37:12;;;;;;;11.30;5.80;;;27.60;99.90;;;;;;5050436;28;20052;-86
2023/07/09 08:39:39;;;;;;;11.13;6.22;;;27.60;99.90;;;;;;5067187;28;20056;-86
2023/07/09 08:42:17;;;;;;;10.82;5.95;;;27.70;99.90;;;;;;5086794;28;20052;-86
2023/07/09 08:45:07;;;;;;;11.95;6.05;;;27.80;99.90;;;;;;5098323;28;20457;-86
2023/07/09 08:48:08;;;;;;;10.70;5.75;;;28.00;99.90;;;;;;5088272;28;20048;-86
2023/07/09 08:50:51;;;;;;;7.57;5.10;;;28.00;99.90;;;;;;5090213;28;20047;-86
2023/07/09 08:53:29;;;;;;;9.85;5.70;;;28.20;99.90;;;;;;5090791;28;20071;-88
2023/07/09 08:55:59;;;;;;;9.10;5.60;;;28.30;99.90;;;;;;5092485;28;20123;-88
2023/07/09 08:58:32;;;;;;;9.00;5.55;;;28.40;99.90;;;;;;5076977;28;20038;-87
2023/07/09 09:01:03;;;;;;;8.35;5.70;;;28.50;99.90;;;;;;5091727;28;20067;-87
2023/07/09 09:03:38;;;;;;;8.40;5.38;;;28.50;99.90;;;;;;5092420;28;20042;-88
2023/07/09 09:06:38;;;;;;;9.70;5.75;;;28.60;99.90;;;;;;5091946;28;20055;-88
2023/07/09 09:09:19;;;;;;;8.07;5.38;;;28.80;99.90;;;;;;5112612;28;20055;-87
2023/07/09 09:12:24;;;;;;;9.60;5.60;;;28.90;99.90;;;;;;5113384;28;20503;-89
2023/07/09 09:15:17;;;;;;;11.55;5.40;;;28.90;99.90;;;;;;5077101;28;20052;-88
2023/07/09 09:18:05;;;;;;;17.75;5.47;;;28.90;99.90;;;;;;5096575;28;20083;-90
2023/07/09 09:20:32;;;;;;;11.55;5.25;;;29.10;99.90;;;;;;5096511;28;20051;-88
2023/07/09 09:23:36;;;;;;;9.60;5.32;;;29.10;99.90;;;;;;5063199;28;20040;-88
2023/07/09 09:33:36;;;;;;;13.20;5.60;;;29.30;99.90;;;;;;5075894;28;20388;-92
2023/07/09 09:36:04;;;;;;;9.48;5.85;;;29.40;99.90;;;;;;5099249;28;20131;-91
2023/07/09 09:38:36;;;;;;;9.93;5.35;;;29.50;99.90;;;;;;5088803;28;20119;-90
2023/07/09 09:41:03;;;;;;;12.77;5.40;;;29.60;99.90;;;;;;5096473;28;20036;-90
2023/07/09 09:43:33;;;;;;;9.50;4.95;;;29.80;99.90;;;;;;5112926;28;20059;-89
2023/07/09 09:46:02;;;;;;;8.73;5.47;;;29.80;99.90;;;;;;5079449;28;20048;-88
2023/07/09 09:48:31;;;;;;;8.27;5.60;;;30.00;99.90;;;;;;5078681;28;20050;-90
2023/07/09 09:51:01;;;;;;;9.15;5.20;;;30.20;99.90;;;;;;5095617;28;20032;-89
2023/07/09 09:53:30;;;;;;;9.63;5.78;;;30.30;99.90;;;;;;5078051;28;20051;-88
2023/07/09 09:55:58;;;;;;;7.95;5.20;;;30.60;99.90;;;;;;5094954;28;20073;-87
2023/07/09 09:58:29;;;;;;;10.90;5.57;;;30.80;99.90;;;;;;5094593;28;20043;-85
2023/07/09 10:00:58;;;;;;;8.65;5.25;;;30.90;99.90;;;;;;5109604;28;20031;-88
2023/07/09 10:03:35;;;;;;;10.85;5.05;;;31.00;99.90;;;;;;5115339;28;20150;-90
2023/07/09 10:06:21;;;;;;;8.70;5.20;;;31.10;99.70;;;;;;5111144;28;20431;-89
2023/07/09 10:09:01;;;;;;;10.13;4.82;;;31.20;99.00;;;;;;5103375;28;20035;-88
2023/07/09 10:12:07;;;;;;;8.63;4.75;;;31.30;99.40;;;;;;5115965;28;20043;-90
2023/07/09 10:14:58;;;;;;;9.98;5.25;;;31.30;99.10;;;;;;5111879;28;20109;-88
2023/07/09 10:17:27;;;;;;;9.65;5.20;;;31.20;98.60;;;;;;5091880;28;20135;-90
2023/07/09 10:20:03;;;;;;;7.93;4.95;;;31.20;99.30;;;;;;5075133;28;20041;-89
2023/07/09 10:22:49;;;;;;;9.68;5.07;;;31.20;98.60;;;;;;5075465;28;20840;-88
2023/07/09 10:25:34;;;;;;;7.82;5.30;;;31.30;98.80;;;;;;5074977;28;20041;-89
2023/07/09 10:28:32;;;;;;;9.38;4.72;;;31.30;99.00;;;;;;5074274;28;20043;-86
2023/07/09 10:31:14;;;;;;;7.38;4.63;;;31.50;99.10;;;;;;5098587;28;20035;-88
2023/07/09 10:34:03;;;;;;;10.20;4.78;;;31.70;98.80;;;;;;5115966;28;20035;-88
2023/07/09 10:36:46;;;;;;;7.65;4.47;;;31.80;98.80;;;;;;5082327;28;20047;-87
2023/07/09 10:39:34;;;;;;;8.70;4.68;;;31.80;98.20;;;;;;5110618;28;20105;-85
2023/07/09 10:42:03;;;;;;;8.30;4.50;;;31.90;98.60;;;;;;5095253;28;20750;-88
2023/07/09 10:44:38;;;;;;;10.05;4.50;;;32.00;98.60;;;;;;5077523;28;20120;-90
2023/07/09 10:47:28;;;;;;;8.23;4.95;;;32.10;98.60;;;;;;5109548;28;20052;-87
2023/07/09 10:49:57;;;;;;;8.18;5.15;;;32.00;97.70;;;;;;5092794;28;20058;-92
2023/07/09 10:52:32;;;;;;;8.60;4.75;;;32.10;98.50;;;;;;5092310;28;20579;-86
2023/07/09 10:55:26;;;;;;;8.07;4.63;;;32.20;98.30;;;;;;5090958;28;20127;-85
2023/07/09 10:58:00;;;;;;;6.75;4.57;;;32.20;97.80;;;;;;5090858;28;20075;-85
2023/07/09 11:00:37;;;;;;;9.65;4.55;;;32.40;97.50;;;;;;5091813;28;20048;-87
2023/07/09 11:03:14;;;;;;;10.27;5.28;;;32.60;97.40;;;;;;5110337;28;20047;-87
2023/07/09 11:05:42;;;;;;;9.95;4.97;;;32.60;98.00;;;;;;5113965;28;20097;-89
2023/07/09 11:08:15;;;;;;;7.80;5.00;;;32.60;97.90;;;;;;5118756;28;20130;-95
2023/07/09 11:10:55;;;;;;;9.05;5.00;;;32.70;97.60;;;;;;5117283;28;20042;-96
2023/07/09 11:13:35;;;;;;;7.55;5.05;;;32.70;97.70;;;;;;5117744;28;20079;-96
2023/07/09 11:16:04;;;;;;;10.15;5.00;;;32.80;97.60;;;;;;5116527;28;20039;-90
2023/07/09 11:18:35;;;;;;;8.15;4.60;;;32.90;97.60;;;;;;5099239;28;20036;-92
2023/07/09 11:21:15;;;;;;;8.88;5.00;;;32.90;97.10;;;;;;5101820;28;20090;-90
2023/07/09 11:23:59;;;;;;;9.35;5.18;;;32.80;97.20;;;;;;5095013;28;20436;-89
2023/07/09 11:26:33;;;;;;;9.85;4.85;;;32.90;96.90;;;;;;5111359;28;20043;-89
2023/07/09 11:29:23;;;;;;;11.73;5.45;;;33.00;97.20;;;;;;5094599;28;20131;-89
2023/07/09 11:31:50;;;;;;;7.70;4.47;;;33.00;97.00;;;;;;5093431;28;20121;-89
2023/07/09 11:34:19;;;;;;;7.70;4.68;;;33.10;97.20;;;;;;5111111;28;20044;-89
2023/07/09 11:36:54;;;;;;;8.45;4.30;;;33.20;96.90;;;;;;5094875;28;20044;-90
2023/07/09 11:39:30;;;;;;;6.88;4.28;;;33.20;96.70;;;;;;5111413;28;20071;-90
2023/07/09 11:41:58;;;;;;;7.60;4.28;;;33.10;96.50;;;;;;5094814;28;20097;-90
2023/07/09 11:44:28;;;;;;;9.38;4.72;;;33.20;96.80;;;;;;5094352;28;20056;-90
2023/07/09 11:47:01;;;;;;;8.55;4.63;;;33.10;96.70;;;;;;5095136;28;20054;-90
2023/07/09 11:49:33;;;;;;;6.75;4.50;;;33.10;96.50;;;;;;5110846;28;20564;-89
2023/07/09 11:52:04;;;;;;;10.25;4.18;;;33.10;96.50;;;;;;5094704;28;20040;-89
2023/07/09 11:54:37;;;;;;;7.90;3.88;;;33.20;96.20;;;;;;5094303;28;20530;-89
2023/07/09 11:57:11;;;;;;;6.72;3.70;;;33.20;95.80;;;;;;5094829;28;20039;-89
2023/07/09 11:59:39;;;;;;;7.53;4.13;;;33.30;95.90;;;;;;5094798;28;20040;-90
2023/07/09 12:02:13;;;;;;;9.13;3.88;;;33.30;95.80;;;;;;5078126;28;20051;-90
2023/07/09 12:04:41;;;;;;;6.15;3.88;;;33.30;95.80;;;;;;5094380;28;20051;-90
2023/07/09 12:07:13;;;;;;;5.85;3.53;;;33.30;95.80;;;;;;5094049;28;20040;-90
2023/07/09 12:09:49;;;;;;;8.15;3.72;;;33.40;95.30;;;;;;5094348;28;20040;-91
2023/07/09 12:12:23;;;;;;;6.47;3.53;;;33.40;95.20;;;;;;5094200;28;20040;-91
2023/07/09 12:14:50;;;;;;;6.88;3.42;;;33.50;94.30;;;;;;5094847;28;20043;-91
2023/07/09 12:17:17;;;;;;;7.15;3.70;;;33.50;94.50;;;;;;5094629;28;20047;-91
2023/07/09 12:19:44;;;;;;;7.47;3.65;;;33.50;94.90;;;;;;5094121;28;20412;-90
2023/07/09 12:22:19;;;;;;;11.90;4.22;;;33.50;94.90;;;;;;5094462;28;20040;-90
2023/07/09 12:24:48;;;;;;;5.47;3.63;;;33.70;94.90;;;;;;5094219;28;20044;-90
2023/07/09 12:27:30;;;;;;;6.13;3.58;;;33.80;94.80;;;;;;5094290;28;20055;-90
2023/07/09 12:29:57;;;;;;;7.53;3.72;;;33.80;94.20;;;;;;5094456;28;20544;-91
2023/07/09 12:32:26;;;;;;;9.13;3.55;;;33.80;94.70;;;;;;5094586;28;20050;-92
2023/07/09 12:34:55;;;;;;;6.80;3.70;;;33.90;94.70;;;;;;5094177;28;20084;-91
2023/07/09 12:37:26;;;;;;;6.03;3.63;;;34.00;94.60;;;;;;5093906;28;20477;-93
2023/07/09 12:39:53;;;;;;;6.05;3.97;;;34.00;94.40;;;;;;5093538;28;20040;-91
2023/07/09 12:42:35;;;;;;;6.97;3.63;;;34.00;94.30;;;;;;5076922;28;20472;-90
2023/07/09 12:45:04;;;;;;;7.53;3.85;;;34.00;94.30;;;;;;5094054;28;20404;-91
2023/07/09 12:47:31;;;;;;;7.15;3.53;;;34.10;94.70;;;;;;5093679;28;20134;-92
2023/07/09 12:50:25;;;;;;;5.60;3.60;;;34.00;94.60;;;;;;5094279;28;20048;-92
2023/07/09 12:52:58;;;;;;;6.43;3.50;;;34.10;93.50;;;;;;5093907;28;20044;-92
2023/07/09 12:55:26;;;;;;;7.78;3.45;;;34.00;93.50;;;;;;5094100;28;20534;-92
2023/07/09 12:57:59;;;;;;;5.53;3.25;;;34.00;93.50;;;;;;5093621;28;20036;-90
2023/07/09 13:00:32;;;;;;;6.03;3.75;;;34.00;93.50;;;;;;5093801;28;20135;-92
2023/07/09 13:03:00;;;;;;;5.75;3.17;;;34.00;93.80;;;;;;5093559;28;20040;-90
2023/07/09 13:05:27;;;;;;;8.48;3.58;;;34.00;93.80;;;;;;5127330;28;20044;-92
2023/07/09 13:08:14;;;;;;;8.15;3.70;;;34.00;93.80;;;;;;5093526;28;20047;-91
2023/07/09 13:10:42;;;;;;;5.63;3.45;;;34.00;93.00;;;;;;5093950;28;20047;-91